sensor_id;sensor_type;location;lat;lon;timestamp;temperature;humidity
24518;DHT22;12678;51.336;12.406;2023-04-30T00:02:19;10.40;99.90
24518;DHT22;12678;51.336;12.406;2023-04-30T00:04:45;10.40;99.90
24518;DHT22;12678;51.336;12.406;2023-04-30T00:07:11;10.30;99.90
24518;DHT22;12678;51.336;12.406;2023-04-30T00:09:37;10.30;99.90
24518;DHT22;12678;51.336;12.406;2023-04-30T00:12:03;10.30;99.90
24518;DHT22;12678;51.336;12.406;2023-04-30T00:14:29;10.10;99.90
24518;DHT22;12678;51.336;12.406;2023-04-30T00:16:54;10.20;99.90
24518;DHT22;12678;51.336;12.406;2023-04-30T00:19:20;10.10;99.90
24518;DHT22;12678;51.336;12.406;2023-04-30T00:21:46;10.10;99.90
24518;DHT22;12678;51.336;12.406;2023-04-30T00:24:12;10.10;99.90
24518;DHT22;12678;51.336;12.406;2023-04-30T00:26:37;10.00;99.90
24518;DHT22;12678;51.336;12.406;2023-04-30T00:29:03;10.00;99.90
24518;DHT22;12678;51.336;12.406;2023-04-30T00:31:29;10.00;99.90
24518;DHT22;12678;51.336;12.406;2023-04-30T00:33:54;9.90;99.90
24518;DHT22;12678;51.336;12.406;2023-04-30T00:36:20;9.90;99.90
24518;DHT22;12678;51.336;12.406;2023-04-30T00:38:45;9.80;99.90
24518;DHT22;12678;51.336;12.406;2023-04-30T00:41:11;9.80;99.90
24518;DHT22;12678;51.336;12.406;2023-04-30T00:43:37;9.80;99.90
24518;DHT22;12678;51.336;12.406;2023-04-30T00:46:03;9.70;99.90
24518;DHT22;12678;51.336;12.406;2023-04-30T00:48:31;9.60;99.90
24518;DHT22;12678;51.336;12.406;2023-04-30T00:50:56;9.50;99.90
24518;DHT22;12678;51.336;12.406;2023-04-30T00:53:22;9.50;99.90
24518;DHT22;12678;51.336;12.406;2023-04-30T00:55:48;9.40;99.90
24518;DHT22;12678;51.336;12.406;2023-04-30T00:58:14;9.40;99.90
24518;DHT22;12678;51.336;12.406;2023-04-30T01:00:40;9.40;99.90
24518;DHT22;12678;51.336;12.406;2023-04-30T01:03:14;9.40;99.90
24518;DHT22;12678;51.336;12.406;2023-04-30T01:05:40;9.30;99.90
24518;DHT22;12678;51.336;12.406;2023-04-30T01:08:06;9.30;99.90
24518;DHT22;12678;51.336;12.406;2023-04-30T01:10:40;9.20;99.90
24518;DHT22;12678;51.336;12.406;2023-04-30T01:13:17;9.20;99.90
24518;DHT22;12678;51.336;12.406;2023-04-30T01:15:49;9.20;99.90
24518;DHT22;12678;51.336;12.406;2023-04-30T01:18:32;9.10;99.90
24518;DHT22;12678;51.336;12.406;2023-04-30T01:21:03;9.10;99.90
24518;DHT22;12678;51.336;12.406;2023-04-30T01:26:28;9.00;99.90
24518;DHT22;12678;51.336;12.406;2023-04-30T01:28:58;9.00;99.90
24518;DHT22;12678;51.336;12.406;2023-04-30T01:31:27;8.90;99.90
24518;DHT22;12678;51.336;12.406;2023-04-30T01:33:53;8.90;99.90
24518;DHT22;12678;51.336;12.406;2023-04-30T01:36:39;8.80;99.90
24518;DHT22;12678;51.336;12.406;2023-04-30T01:39:19;8.80;99.90
24518;DHT22;12678;51.336;12.406;2023-04-30T01:42:18;8.80;99.90
24518;DHT22;12678;51.336;12.406;2023-04-30T01:47:44;8.70;99.90
24518;DHT22;12678;51.336;12.406;2023-04-30T01:53:02;8.60;99.90
24518;DHT22;12678;51.336;12.406;2023-04-30T01:55:42;8.60;99.90
24518;DHT22;12678;51.336;12.406;2023-04-30T01:58:14;8.50;99.90
24518;DHT22;12678;51.336;12.406;2023-04-30T02:00:41;8.50;99.90
24518;DHT22;12678;51.336;12.406;2023-04-30T02:03:06;8.40;99.90
24518;DHT22;12678;51.336;12.406;2023-04-30T02:05:32;8.30;99.90
24518;DHT22;12678;51.336;12.406;2023-04-30T02:07:58;8.30;99.90
24518;DHT22;12678;51.336;12.406;2023-04-30T02:10:25;8.30;99.90
24518;DHT22;12678;51.336;12.406;2023-04-30T02:12:51;8.30;99.90
24518;DHT22;12678;51.336;12.406;2023-04-30T02:15:17;8.20;99.90
24518;DHT22;12678;51.336;12.406;2023-04-30T02:17:43;8.20;99.90
24518;DHT22;12678;51.336;12.406;2023-04-30T02:20:09;8.20;99.90
24518;DHT22;12678;51.336;12.406;2023-04-30T02:22:36;8.10;99.90
24518;DHT22;12678;51.336;12.406;2023-04-30T02:25:02;8.10;99.90
24518;DHT22;12678;51.336;12.406;2023-04-30T02:27:30;8.00;99.90
24518;DHT22;12678;51.336;12.406;2023-04-30T02:29:56;8.00;99.90
24518;DHT22;12678;51.336;12.406;2023-04-30T02:32:21;8.00;99.90
24518;DHT22;12678;51.336;12.406;2023-04-30T02:34:47;8.00;99.90
24518;DHT22;12678;51.336;12.406;2023-04-30T02:37:13;7.90;99.90
24518;DHT22;12678;51.336;12.406;2023-04-30T02:39:38;7.90;99.90
24518;DHT22;12678;51.336;12.406;2023-04-30T02:42:04;7.90;99.90
24518;DHT22;12678;51.336;12.406;2023-04-30T02:44:32;7.90;99.90
24518;DHT22;12678;51.336;12.406;2023-04-30T02:46:58;7.90;99.90
24518;DHT22;12678;51.336;12.406;2023-04-30T02:49:24;7.90;99.90
24518;DHT22;12678;51.336;12.406;2023-04-30T02:51:50;7.90;99.90
24518;DHT22;12678;51.336;12.406;2023-04-30T02:54:15;7.90;99.90
24518;DHT22;12678;51.336;12.406;2023-04-30T02:56:42;7.90;99.90
24518;DHT22;12678;51.336;12.406;2023-04-30T02:59:09;7.90;99.90
24518;DHT22;12678;51.336;12.406;2023-04-30T03:01:34;7.90;99.90
24518;DHT22;12678;51.336;12.406;2023-04-30T03:04:00;7.80;99.90
24518;DHT22;12678;51.336;12.406;2023-04-30T03:06:28;7.80;99.90
24518;DHT22;12678;51.336;12.406;2023-04-30T03:08:53;7.70;99.90
24518;DHT22;12678;51.336;12.406;2023-04-30T03:11:19;7.70;99.90
24518;DHT22;12678;51.336;12.406;2023-04-30T03:13:47;7.60;99.90
24518;DHT22;12678;51.336;12.406;2023-04-30T03:16:16;7.70;99.90
24518;DHT22;12678;51.336;12.406;2023-04-30T03:18:42;7.60;99.90
24518;DHT22;12678;51.336;12.406;2023-04-30T03:21:08;7.60;99.90
24518;DHT22;12678;51.336;12.406;2023-04-30T03:23:34;7.60;99.90
24518;DHT22;12678;51.336;12.406;2023-04-30T03:26:00;7.50;99.90
24518;DHT22;12678;51.336;12.406;2023-04-30T03:28:25;7.50;99.90
24518;DHT22;12678;51.336;12.406;2023-04-30T03:30:52;7.50;99.90
24518;DHT22;12678;51.336;12.406;2023-04-30T03:33:17;7.60;99.90
24518;DHT22;12678;51.336;12.406;2023-04-30T03:35:43;7.50;99.90
24518;DHT22;12678;51.336;12.406;2023-04-30T03:38:09;7.50;99.90
24518;DHT22;12678;51.336;12.406;2023-04-30T03:40:34;7.40;99.90
24518;DHT22;12678;51.336;12.406;2023-04-30T03:43:00;7.40;99.90
24518;DHT22;12678;51.336;12.406;2023-04-30T03:45:26;7.40;99.90
24518;DHT22;12678;51.336;12.406;2023-04-30T03:47:51;7.40;99.90
24518;DHT22;12678;51.336;12.406;2023-04-30T03:50:17;7.30;99.90
24518;DHT22;12678;51.336;12.406;2023-04-30T03:52:44;7.30;99.90
24518;DHT22;12678;51.336;12.406;2023-04-30T03:55:10;7.30;99.90
24518;DHT22;12678;51.336;12.406;2023-04-30T03:57:37;7.30;99.90
24518;DHT22;12678;51.336;12.406;2023-04-30T04:00:03;7.30;99.90
24518;DHT22;12678;51.336;12.406;2023-04-30T04:02:32;7.40;99.90
24518;DHT22;12678;51.336;12.406;2023-04-30T04:04:58;7.40;99.90
24518;DHT22;12678;51.336;12.406;2023-04-30T04:07:24;7.40;99.90
24518;DHT22;12678;51.336;12.406;2023-04-30T04:09:50;7.40;99.90
24518;DHT22;12678;51.336;12.406;2023-04-30T04:12:15;7.40;99.90
24518;DHT22;12678;51.336;12.406;2023-04-30T04:14:41;7.50;99.90
24518;DHT22;12678;51.336;12.406;2023-04-30T04:17:07;7.40;99.90
24518;DHT22;12678;51.336;12.406;2023-04-30T04:19:33;7.50;99.90
24518;DHT22;12678;51.336;12.406;2023-04-30T04:21:59;7.50;99.90
24518;DHT22;12678;51.336;12.406;2023-04-30T04:24:25;7.50;99.90
24518;DHT22;12678;51.336;12.406;2023-04-30T04:26:51;7.50;99.90
24518;DHT22;12678;51.336;12.406;2023-04-30T04:29:18;7.70;99.90
24518;DHT22;12678;51.336;12.406;2023-04-30T04:31:44;7.70;99.90
24518;DHT22;12678;51.336;12.406;2023-04-30T04:34:13;7.90;99.90
24518;DHT22;12678;51.336;12.406;2023-04-30T04:36:38;8.30;99.90
24518;DHT22;12678;51.336;12.406;2023-04-30T04:39:04;8.80;99.90
24518;DHT22;12678;51.336;12.406;2023-04-30T04:41:31;9.30;99.90
24518;DHT22;12678;51.336;12.406;2023-04-30T04:43:58;10.00;99.90
24518;DHT22;12678;51.336;12.406;2023-04-30T04:46:24;10.60;99.90
24518;DHT22;12678;51.336;12.406;2023-04-30T04:48:50;11.00;99.90
24518;DHT22;12678;51.336;12.406;2023-04-30T04:51:16;11.20;99.90
24518;DHT22;12678;51.336;12.406;2023-04-30T04:53:42;11.50;99.90
24518;DHT22;12678;51.336;12.406;2023-04-30T04:56:08;11.70;99.90
24518;DHT22;12678;51.336;12.406;2023-04-30T04:58:34;11.60;99.90
24518;DHT22;12678;51.336;12.406;2023-04-30T05:01:00;11.70;99.90
24518;DHT22;12678;51.336;12.406;2023-04-30T05:03:27;12.20;99.90
24518;DHT22;12678;51.336;12.406;2023-04-30T05:05:52;12.50;99.90
24518;DHT22;12678;51.336;12.406;2023-04-30T05:08:18;12.40;99.90
24518;DHT22;12678;51.336;12.406;2023-04-30T05:10:44;12.70;99.90
24518;DHT22;12678;51.336;12.406;2023-04-30T05:13:11;13.00;99.90
24518;DHT22;12678;51.336;12.406;2023-04-30T05:15:37;13.30;99.90
24518;DHT22;12678;51.336;12.406;2023-04-30T05:18:02;13.70;99.90
24518;DHT22;12678;51.336;12.406;2023-04-30T05:20:29;14.10;99.90
24518;DHT22;12678;51.336;12.406;2023-04-30T05:22:54;14.20;99.90
24518;DHT22;12678;51.336;12.406;2023-04-30T05:25:20;13.70;99.90
24518;DHT22;12678;51.336;12.406;2023-04-30T05:27:45;13.20;99.90
24518;DHT22;12678;51.336;12.406;2023-04-30T05:30:11;12.50;99.90
24518;DHT22;12678;51.336;12.406;2023-04-30T05:32:37;11.80;99.90
24518;DHT22;12678;51.336;12.406;2023-04-30T05:35:03;11.30;99.90
24518;DHT22;12678;51.336;12.406;2023-04-30T05:37:29;10.80;99.90
24518;DHT22;12678;51.336;12.406;2023-04-30T05:39:54;10.70;99.90
24518;DHT22;12678;51.336;12.406;2023-04-30T05:42:20;10.50;99.90
24518;DHT22;12678;51.336;12.406;2023-04-30T05:44:47;10.30;99.90
24518;DHT22;12678;51.336;12.406;2023-04-30T05:47:14;10.20;99.90
24518;DHT22;12678;51.336;12.406;2023-04-30T05:49:40;10.20;99.90
24518;DHT22;12678;51.336;12.406;2023-04-30T05:52:06;10.10;99.90
24518;DHT22;12678;51.336;12.406;2023-04-30T05:54:31;10.10;99.90
24518;DHT22;12678;51.336;12.406;2023-04-30T05:56:57;9.90;99.90
24518;DHT22;12678;51.336;12.406;2023-04-30T05:59:23;9.80;99.90
24518;DHT22;12678;51.336;12.406;2023-04-30T06:01:50;9.80;99.90
24518;DHT22;12678;51.336;12.406;2023-04-30T06:04:16;9.80;99.90
24518;DHT22;12678;51.336;12.406;2023-04-30T06:06:41;9.70;99.90
24518;DHT22;12678;51.336;12.406;2023-04-30T06:09:07;9.80;99.90
24518;DHT22;12678;51.336;12.406;2023-04-30T06:11:33;9.70;99.90
24518;DHT22;12678;51.336;12.406;2023-04-30T06:13:59;9.70;99.90
24518;DHT22;12678;51.336;12.406;2023-04-30T06:16:25;9.80;99.90
24518;DHT22;12678;51.336;12.406;2023-04-30T06:18:51;9.80;99.90
24518;DHT22;12678;51.336;12.406;2023-04-30T06:21:16;10.00;99.90
24518;DHT22;12678;51.336;12.406;2023-04-30T06:23:42;10.10;99.90
24518;DHT22;12678;51.336;12.406;2023-04-30T06:26:08;10.20;99.90
24518;DHT22;12678;51.336;12.406;2023-04-30T06:28:33;10.30;99.90
24518;DHT22;12678;51.336;12.406;2023-04-30T06:30:59;10.30;99.90
24518;DHT22;12678;51.336;12.406;2023-04-30T06:33:27;10.50;99.90
24518;DHT22;12678;51.336;12.406;2023-04-30T06:35:52;10.70;99.90
24518;DHT22;12678;51.336;12.406;2023-04-30T06:38:20;11.30;99.90
24518;DHT22;12678;51.336;12.406;2023-04-30T06:40:46;12.10;99.90
24518;DHT22;12678;51.336;12.406;2023-04-30T06:43:11;12.50;99.90
24518;DHT22;12678;51.336;12.406;2023-04-30T06:45:38;12.80;99.90
24518;DHT22;12678;51.336;12.406;2023-04-30T06:48:04;12.80;99.90
24518;DHT22;12678;51.336;12.406;2023-04-30T06:50:30;12.90;99.90
24518;DHT22;12678;51.336;12.406;2023-04-30T06:52:55;13.20;99.90
24518;DHT22;12678;51.336;12.406;2023-04-30T06:55:21;13.20;99.90
24518;DHT22;12678;51.336;12.406;2023-04-30T06:57:47;13.10;99.90
24518;DHT22;12678;51.336;12.406;2023-04-30T07:00:12;12.90;99.90
24518;DHT22;12678;51.336;12.406;2023-04-30T07:02:40;12.80;99.90
24518;DHT22;12678;51.336;12.406;2023-04-30T07:05:06;12.70;99.90
24518;DHT22;12678;51.336;12.406;2023-04-30T07:07:32;12.50;99.90
24518;DHT22;12678;51.336;12.406;2023-04-30T07:09:58;12.40;99.90
24518;DHT22;12678;51.336;12.406;2023-04-30T07:12:24;12.30;99.90
24518;DHT22;12678;51.336;12.406;2023-04-30T07:14:49;12.20;99.90
24518;DHT22;12678;51.336;12.406;2023-04-30T07:17:15;12.30;99.90
24518;DHT22;12678;51.336;12.406;2023-04-30T07:19:41;12.40;99.90
24518;DHT22;12678;51.336;12.406;2023-04-30T07:22:06;12.40;99.90
24518;DHT22;12678;51.336;12.406;2023-04-30T07:24:32;12.20;99.90
24518;DHT22;12678;51.336;12.406;2023-04-30T07:26:58;12.00;99.90
24518;DHT22;12678;51.336;12.406;2023-04-30T07:29:27;12.00;99.90
24518;DHT22;12678;51.336;12.406;2023-04-30T07:31:53;12.00;99.90
24518;DHT22;12678;51.336;12.406;2023-04-30T07:34:19;12.00;99.90
24518;DHT22;12678;51.336;12.406;2023-04-30T07:36:47;12.20;99.90
24518;DHT22;12678;51.336;12.406;2023-04-30T07:39:13;12.50;99.90
24518;DHT22;12678;51.336;12.406;2023-04-30T07:41:39;12.70;99.90
24518;DHT22;12678;51.336;12.406;2023-04-30T07:44:05;12.80;99.90
24518;DHT22;12678;51.336;12.406;2023-04-30T07:46:30;12.70;99.90
24518;DHT22;12678;51.336;12.406;2023-04-30T07:48:57;12.80;99.90
24518;DHT22;12678;51.336;12.406;2023-04-30T07:51:23;13.00;99.90
24518;DHT22;12678;51.336;12.406;2023-04-30T07:53:49;13.10;99.90
24518;DHT22;12678;51.336;12.406;2023-04-30T07:56:14;13.50;99.90
24518;DHT22;12678;51.336;12.406;2023-04-30T07:58:40;14.00;99.90
24518;DHT22;12678;51.336;12.406;2023-04-30T08:01:07;14.50;99.90
24518;DHT22;12678;51.336;12.406;2023-04-30T08:03:32;14.90;99.90
24518;DHT22;12678;51.336;12.406;2023-04-30T08:05:58;15.40;99.90
24518;DHT22;12678;51.336;12.406;2023-04-30T08:08:24;15.70;99.90
24518;DHT22;12678;51.336;12.406;2023-04-30T08:10:49;15.90;99.90
24518;DHT22;12678;51.336;12.406;2023-04-30T08:13:15;16.10;98.80
24518;DHT22;12678;51.336;12.406;2023-04-30T08:15:41;16.00;98.20
24518;DHT22;12678;51.336;12.406;2023-04-30T08:18:07;15.70;99.30
24518;DHT22;12678;51.336;12.406;2023-04-30T08:20:33;15.80;99.10
24518;DHT22;12678;51.336;12.406;2023-04-30T08:22:59;16.30;96.80
24518;DHT22;12678;51.336;12.406;2023-04-30T08:25:25;16.40;97.00
24518;DHT22;12678;51.336;12.406;2023-04-30T08:27:51;16.20;97.00
24518;DHT22;12678;51.336;12.406;2023-04-30T08:30:17;16.30;95.60
24518;DHT22;12678;51.336;12.406;2023-04-30T08:32:42;16.30;93.50
24518;DHT22;12678;51.336;12.406;2023-04-30T08:35:08;16.20;92.60
24518;DHT22;12678;51.336;12.406;2023-04-30T08:37:34;16.30;92.20
24518;DHT22;12678;51.336;12.406;2023-04-30T08:40:00;15.90;90.90
24518;DHT22;12678;51.336;12.406;2023-04-30T08:42:30;15.80;92.00
24518;DHT22;12678;51.336;12.406;2023-04-30T08:44:58;16.10;92.40
24518;DHT22;12678;51.336;12.406;2023-04-30T08:47:25;16.30;91.60
24518;DHT22;12678;51.336;12.406;2023-04-30T08:49:52;16.30;92.10
24518;DHT22;12678;51.336;12.406;2023-04-30T08:52:18;16.60;90.00
24518;DHT22;12678;51.336;12.406;2023-04-30T08:54:45;16.70;88.10
24518;DHT22;12678;51.336;12.406;2023-04-30T08:57:12;16.40;85.30
24518;DHT22;12678;51.336;12.406;2023-04-30T08:59:37;16.60;81.10
24518;DHT22;12678;51.336;12.406;2023-04-30T09:02:04;16.50;77.20
24518;DHT22;12678;51.336;12.406;2023-04-30T09:04:30;16.30;72.40
24518;DHT22;12678;51.336;12.406;2023-04-30T09:06:56;16.40;71.00
24518;DHT22;12678;51.336;12.406;2023-04-30T09:09:28;16.40;71.80
24518;DHT22;12678;51.336;12.406;2023-04-30T09:12:14;16.40;75.00
24518;DHT22;12678;51.336;12.406;2023-04-30T09:14:57;16.20;77.40
24518;DHT22;12678;51.336;12.406;2023-04-30T09:17:24;16.20;77.80
24518;DHT22;12678;51.336;12.406;2023-04-30T09:19:51;16.30;77.60
24518;DHT22;12678;51.336;12.406;2023-04-30T09:22:22;16.50;76.50
24518;DHT22;12678;51.336;12.406;2023-04-30T09:24:49;16.50;73.40
24518;DHT22;12678;51.336;12.406;2023-04-30T09:27:20;16.50;73.10
24518;DHT22;12678;51.336;12.406;2023-04-30T09:29:46;16.50;72.10
24518;DHT22;12678;51.336;12.406;2023-04-30T09:32:12;16.30;73.40
24518;DHT22;12678;51.336;12.406;2023-04-30T09:34:38;16.40;73.90
24518;DHT22;12678;51.336;12.406;2023-04-30T09:37:05;16.50;73.00
24518;DHT22;12678;51.336;12.406;2023-04-30T09:39:32;16.60;73.70
24518;DHT22;12678;51.336;12.406;2023-04-30T09:42:10;16.80;72.00
24518;DHT22;12678;51.336;12.406;2023-04-30T09:44:38;16.30;72.40
24518;DHT22;12678;51.336;12.406;2023-04-30T09:47:04;16.10;72.70
24518;DHT22;12678;51.336;12.406;2023-04-30T09:49:36;16.00;67.70
24518;DHT22;12678;51.336;12.406;2023-04-30T09:52:02;16.10;69.60
24518;DHT22;12678;51.336;12.406;2023-04-30T09:54:30;16.20;70.90
24518;DHT22;12678;51.336;12.406;2023-04-30T09:56:58;16.10;69.90
24518;DHT22;12678;51.336;12.406;2023-04-30T09:59:34;16.20;71.90
24518;DHT22;12678;51.336;12.406;2023-04-30T10:02:04;16.20;73.40
24518;DHT22;12678;51.336;12.406;2023-04-30T10:04:34;16.20;70.10
24518;DHT22;12678;51.336;12.406;2023-04-30T10:07:30;16.10;65.60
24518;DHT22;12678;51.336;12.406;2023-04-30T10:10:03;16.10;67.00
24518;DHT22;12678;51.336;12.406;2023-04-30T10:12:50;16.20;66.60
24518;DHT22;12678;51.336;12.406;2023-04-30T10:15:28;16.20;67.30
24518;DHT22;12678;51.336;12.406;2023-04-30T10:18:00;16.20;68.40
24518;DHT22;12678;51.336;12.406;2023-04-30T10:20:27;16.20;69.00
24518;DHT22;12678;51.336;12.406;2023-04-30T10:22:53;16.30;67.80
24518;DHT22;12678;51.336;12.406;2023-04-30T10:25:19;16.00;68.00
24518;DHT22;12678;51.336;12.406;2023-04-30T10:27:47;16.00;68.60
24518;DHT22;12678;51.336;12.406;2023-04-30T10:30:13;16.10;70.60
24518;DHT22;12678;51.336;12.406;2023-04-30T10:32:55;16.00;71.70
24518;DHT22;12678;51.336;12.406;2023-04-30T10:35:27;15.90;73.10
24518;DHT22;12678;51.336;12.406;2023-04-30T10:37:59;15.90;73.00
24518;DHT22;12678;51.336;12.406;2023-04-30T10:40:28;15.70;70.90
24518;DHT22;12678;51.336;12.406;2023-04-30T10:42:59;15.70;70.20
24518;DHT22;12678;51.336;12.406;2023-04-30T10:45:42;15.60;70.30
24518;DHT22;12678;51.336;12.406;2023-04-30T10:48:08;15.60;69.60
24518;DHT22;12678;51.336;12.406;2023-04-30T10:50:42;15.60;68.40
24518;DHT22;12678;51.336;12.406;2023-04-30T10:53:12;15.50;68.80
24518;DHT22;12678;51.336;12.406;2023-04-30T10:55:45;15.50;69.40
24518;DHT22;12678;51.336;12.406;2023-04-30T10:58:26;15.50;69.70
24518;DHT22;12678;51.336;12.406;2023-04-30T11:01:00;15.60;68.40
24518;DHT22;12678;51.336;12.406;2023-04-30T11:03:30;15.60;67.80
24518;DHT22;12678;51.336;12.406;2023-04-30T11:05:58;15.60;68.10
24518;DHT22;12678;51.336;12.406;2023-04-30T11:08:33;15.60;67.90
24518;DHT22;12678;51.336;12.406;2023-04-30T11:11:00;15.60;68.20
24518;DHT22;12678;51.336;12.406;2023-04-30T11:13:59;15.60;68.30
24518;DHT22;12678;51.336;12.406;2023-04-30T11:16:29;15.60;72.70
24518;DHT22;12678;51.336;12.406;2023-04-30T11:19:12;15.50;73.20
24518;DHT22;12678;51.336;12.406;2023-04-30T11:22:23;15.40;72.20
24518;DHT22;12678;51.336;12.406;2023-04-30T11:27:19;15.30;72.10
24518;DHT22;12678;51.336;12.406;2023-04-30T11:29:45;15.20;68.50
24518;DHT22;12678;51.336;12.406;2023-04-30T11:32:12;15.20;66.40
24518;DHT22;12678;51.336;12.406;2023-04-30T11:34:38;15.20;68.40
24518;DHT22;12678;51.336;12.406;2023-04-30T11:37:05;15.10;71.00
24518;DHT22;12678;51.336;12.406;2023-04-30T11:39:32;15.10;73.50
24518;DHT22;12678;51.336;12.406;2023-04-30T11:42:01;15.10;75.30
24518;DHT22;12678;51.336;12.406;2023-04-30T11:44:27;15.20;75.20
24518;DHT22;12678;51.336;12.406;2023-04-30T11:46:53;15.30;73.70
24518;DHT22;12678;51.336;12.406;2023-04-30T11:49:22;15.20;68.50
24518;DHT22;12678;51.336;12.406;2023-04-30T11:51:51;15.10;68.70
24518;DHT22;12678;51.336;12.406;2023-04-30T11:54:17;15.20;71.30
24518;DHT22;12678;51.336;12.406;2023-04-30T11:56:46;15.40;71.80
24518;DHT22;12678;51.336;12.406;2023-04-30T11:59:16;15.50;69.50
24518;DHT22;12678;51.336;12.406;2023-04-30T12:01:42;15.70;69.10
24518;DHT22;12678;51.336;12.406;2023-04-30T12:04:08;15.60;69.70
24518;DHT22;12678;51.336;12.406;2023-04-30T12:06:34;15.50;69.60
24518;DHT22;12678;51.336;12.406;2023-04-30T12:09:02;15.70;69.80
24518;DHT22;12678;51.336;12.406;2023-04-30T12:11:34;15.60;68.70
24518;DHT22;12678;51.336;12.406;2023-04-30T12:16:37;15.50;59.70
24518;DHT22;12678;51.336;12.406;2023-04-30T12:19:03;15.40;61.20
24518;DHT22;12678;51.336;12.406;2023-04-30T12:21:29;15.20;59.60
24518;DHT22;12678;51.336;12.406;2023-04-30T12:23:55;15.10;59.30
24518;DHT22;12678;51.336;12.406;2023-04-30T12:26:21;15.10;60.10
24518;DHT22;12678;51.336;12.406;2023-04-30T12:28:47;15.10;60.00
24518;DHT22;12678;51.336;12.406;2023-04-30T12:31:17;15.10;62.30
24518;DHT22;12678;51.336;12.406;2023-04-30T12:33:43;15.20;63.00
24518;DHT22;12678;51.336;12.406;2023-04-30T12:36:12;15.00;65.40
24518;DHT22;12678;51.336;12.406;2023-04-30T12:38:42;15.20;65.10
24518;DHT22;12678;51.336;12.406;2023-04-30T12:41:11;15.10;65.00
24518;DHT22;12678;51.336;12.406;2023-04-30T12:43:39;14.90;64.50
24518;DHT22;12678;51.336;12.406;2023-04-30T12:46:05;14.90;64.40
24518;DHT22;12678;51.336;12.406;2023-04-30T12:48:44;14.90;64.70
24518;DHT22;12678;51.336;12.406;2023-04-30T12:51:10;14.80;62.40
24518;DHT22;12678;51.336;12.406;2023-04-30T12:53:44;14.90;66.40
24518;DHT22;12678;51.336;12.406;2023-04-30T12:56:11;14.90;67.80
24518;DHT22;12678;51.336;12.406;2023-04-30T12:58:38;14.90;68.80
24518;DHT22;12678;51.336;12.406;2023-04-30T13:01:09;15.10;69.20
24518;DHT22;12678;51.336;12.406;2023-04-30T13:03:35;15.10;68.80
24518;DHT22;12678;51.336;12.406;2023-04-30T13:06:01;15.30;69.40
24518;DHT22;12678;51.336;12.406;2023-04-30T13:08:29;15.50;69.10
24518;DHT22;12678;51.336;12.406;2023-04-30T13:10:55;15.40;67.50
24518;DHT22;12678;51.336;12.406;2023-04-30T13:13:20;15.50;68.40
24518;DHT22;12678;51.336;12.406;2023-04-30T13:15:46;15.40;69.30
24518;DHT22;12678;51.336;12.406;2023-04-30T13:18:12;15.40;68.90
24518;DHT22;12678;51.336;12.406;2023-04-30T13:20:40;15.40;69.30
24518;DHT22;12678;51.336;12.406;2023-04-30T13:23:06;15.50;70.50
24518;DHT22;12678;51.336;12.406;2023-04-30T13:25:32;15.40;71.40
24518;DHT22;12678;51.336;12.406;2023-04-30T13:27:58;15.50;71.70
24518;DHT22;12678;51.336;12.406;2023-04-30T13:30:24;15.40;72.20
24518;DHT22;12678;51.336;12.406;2023-04-30T13:32:50;15.30;72.70
24518;DHT22;12678;51.336;12.406;2023-04-30T13:35:17;15.30;73.30
24518;DHT22;12678;51.336;12.406;2023-04-30T13:37:43;15.40;73.40
24518;DHT22;12678;51.336;12.406;2023-04-30T13:40:09;15.40;71.00
24518;DHT22;12678;51.336;12.406;2023-04-30T13:42:37;15.20;70.30
24518;DHT22;12678;51.336;12.406;2023-04-30T13:45:05;14.90;71.50
24518;DHT22;12678;51.336;12.406;2023-04-30T13:47:31;14.80;72.90
24518;DHT22;12678;51.336;12.406;2023-04-30T13:49:58;14.90;74.30
24518;DHT22;12678;51.336;12.406;2023-04-30T13:52:23;14.90;73.90
24518;DHT22;12678;51.336;12.406;2023-04-30T13:54:49;14.70;73.70
24518;DHT22;12678;51.336;12.406;2023-04-30T13:57:15;14.80;74.90
24518;DHT22;12678;51.336;12.406;2023-04-30T13:59:40;14.90;75.40
24518;DHT22;12678;51.336;12.406;2023-04-30T14:02:06;15.00;75.50
24518;DHT22;12678;51.336;12.406;2023-04-30T14:04:32;15.10;76.20
24518;DHT22;12678;51.336;12.406;2023-04-30T14:06:57;15.20;75.90
24518;DHT22;12678;51.336;12.406;2023-04-30T14:09:23;15.40;75.70
24518;DHT22;12678;51.336;12.406;2023-04-30T14:11:49;15.40;74.00
24518;DHT22;12678;51.336;12.406;2023-04-30T14:14:15;15.40;72.70
24518;DHT22;12678;51.336;12.406;2023-04-30T14:16:42;15.50;72.00
24518;DHT22;12678;51.336;12.406;2023-04-30T14:19:09;15.50;68.80
24518;DHT22;12678;51.336;12.406;2023-04-30T14:21:35;15.50;66.20
24518;DHT22;12678;51.336;12.406;2023-04-30T14:24:00;15.30;65.20
24518;DHT22;12678;51.336;12.406;2023-04-30T14:26:26;15.10;65.90
24518;DHT22;12678;51.336;12.406;2023-04-30T14:28:52;15.00;64.00
24518;DHT22;12678;51.336;12.406;2023-04-30T14:31:17;14.80;62.00
24518;DHT22;12678;51.336;12.406;2023-04-30T14:33:43;14.70;65.20
24518;DHT22;12678;51.336;12.406;2023-04-30T14:36:09;14.70;68.70
24518;DHT22;12678;51.336;12.406;2023-04-30T14:38:35;14.70;68.90
24518;DHT22;12678;51.336;12.406;2023-04-30T14:41:01;14.80;68.50
24518;DHT22;12678;51.336;12.406;2023-04-30T14:43:26;14.80;68.90
24518;DHT22;12678;51.336;12.406;2023-04-30T14:45:52;14.80;68.70
24518;DHT22;12678;51.336;12.406;2023-04-30T14:48:18;14.90;62.30
24518;DHT22;12678;51.336;12.406;2023-04-30T14:50:43;14.90;58.90
24518;DHT22;12678;51.336;12.406;2023-04-30T14:53:09;14.90;60.00
24518;DHT22;12678;51.336;12.406;2023-04-30T14:55:36;14.90;60.80
24518;DHT22;12678;51.336;12.406;2023-04-30T14:58:02;14.90;59.20
24518;DHT22;12678;51.336;12.406;2023-04-30T15:00:29;14.80;58.40
24518;DHT22;12678;51.336;12.406;2023-04-30T15:02:55;14.80;60.30
24518;DHT22;12678;51.336;12.406;2023-04-30T15:05:20;14.70;60.90
24518;DHT22;12678;51.336;12.406;2023-04-30T15:07:46;14.60;61.50
24518;DHT22;12678;51.336;12.406;2023-04-30T15:10:12;14.60;60.70
24518;DHT22;12678;51.336;12.406;2023-04-30T15:12:37;14.60;59.00
24518;DHT22;12678;51.336;12.406;2023-04-30T15:15:04;14.60;59.60
24518;DHT22;12678;51.336;12.406;2023-04-30T15:17:30;14.50;60.00
24518;DHT22;12678;51.336;12.406;2023-04-30T15:19:59;14.60;61.20
24518;DHT22;12678;51.336;12.406;2023-04-30T15:22:26;14.60;61.80
24518;DHT22;12678;51.336;12.406;2023-04-30T15:24:52;14.60;61.60
24518;DHT22;12678;51.336;12.406;2023-04-30T15:27:18;14.60;62.00
24518;DHT22;12678;51.336;12.406;2023-04-30T15:29:43;14.60;62.80
24518;DHT22;12678;51.336;12.406;2023-04-30T15:32:11;14.60;63.70
24518;DHT22;12678;51.336;12.406;2023-04-30T15:34:37;14.50;65.00
24518;DHT22;12678;51.336;12.406;2023-04-30T15:37:02;14.50;66.10